Fort Walton Beach, Florida
Current Conditions -  °F | °C
As of 2:56 AM on Wednesday 22 Oct 2014 (Local Time) from KQBL Reporting Station
Few Clouds Few Clouds  
Wind Chill: 58°   Ceiling: Unl
Heat Index: 58°   Visibility: 10mi
Dew Point: 53°   Wind: 1mph
Humidity: 86%   Direction: 330°NNW
Pressure: 30.01"   Gusts: NA
Location:  30.4°N, 86.61°W
Report Text: KQBL 220756Z AUTO 33001KT 10SM FEW240 14/12 A3001 RMK AO2 SLP169 T01420119
Loading
Personal Weather Stations






























Interactive Weather Map
Tropical Storm Tracking
New forecast layout! Learn more

10-Day Weather Forecast

Advertisements
Track Severe Weather on mobile